sensor_id;sensor_type;location;lat;lon;timestamp;P1;durP1;ratioP1;P2;durP2;ratioP2
77888;SDS011;67082;41.704;44.768;2023-07-28T00:00:11;19.00;;;7.68;;
77888;SDS011;67082;41.704;44.768;2023-07-28T00:03:01;13.70;;;7.05;;
77888;SDS011;67082;41.704;44.768;2023-07-28T00:05:29;12.70;;;7.13;;
77888;SDS011;67082;41.704;44.768;2023-07-28T00:07:58;18.10;;;7.43;;
77888;SDS011;67082;41.704;44.768;2023-07-28T00:10:29;12.88;;;7.43;;
77888;SDS011;67082;41.704;44.768;2023-07-28T00:12:57;14.75;;;7.72;;
77888;SDS011;67082;41.704;44.768;2023-07-28T00:15:25;17.42;;;7.65;;
77888;SDS011;67082;41.704;44.768;2023-07-28T00:17:53;17.15;;;7.30;;
77888;SDS011;67082;41.704;44.768;2023-07-28T00:20:21;12.90;;;7.07;;
77888;SDS011;67082;41.704;44.768;2023-07-28T00:22:50;16.63;;;7.35;;
77888;SDS011;67082;41.704;44.768;2023-07-28T00:25:18;15.43;;;7.90;;
77888;SDS011;67082;41.704;44.768;2023-07-28T00:27:47;14.75;;;7.43;;
77888;SDS011;67082;41.704;44.768;2023-07-28T00:30:15;16.33;;;8.43;;
77888;SDS011;67082;41.704;44.768;2023-07-28T00:32:44;20.05;;;7.78;;
77888;SDS011;67082;41.704;44.768;2023-07-28T00:35:11;19.08;;;7.55;;
77888;SDS011;67082;41.704;44.768;2023-07-28T00:37:40;13.15;;;6.78;;
77888;SDS011;67082;41.704;44.768;2023-07-28T00:40:08;9.50;;;7.03;;
77888;SDS011;67082;41.704;44.768;2023-07-28T00:42:36;11.23;;;6.45;;
77888;SDS011;67082;41.704;44.768;2023-07-28T00:45:04;18.27;;;7.55;;
77888;SDS011;67082;41.704;44.768;2023-07-28T00:47:34;18.92;;;7.47;;
77888;SDS011;67082;41.704;44.768;2023-07-28T00:50:03;15.98;;;7.32;;
77888;SDS011;67082;41.704;44.768;2023-07-28T00:52:32;12.85;;;7.38;;
77888;SDS011;67082;41.704;44.768;2023-07-28T00:55:00;14.52;;;7.38;;
77888;SDS011;67082;41.704;44.768;2023-07-28T00:57:30;16.50;;;7.10;;
77888;SDS011;67082;41.704;44.768;2023-07-28T01:00:02;14.00;;;7.07;;
77888;SDS011;67082;41.704;44.768;2023-07-28T01:02:32;11.98;;;6.35;;
77888;SDS011;67082;41.704;44.768;2023-07-28T01:05:00;14.60;;;7.03;;
77888;SDS011;67082;41.704;44.768;2023-07-28T01:10:10;11.85;;;7.00;;
77888;SDS011;67082;41.704;44.768;2023-07-28T01:12:42;16.52;;;7.18;;
77888;SDS011;67082;41.704;44.768;2023-07-28T01:15:13;14.80;;;6.70;;
77888;SDS011;67082;41.704;44.768;2023-07-28T01:17:42;12.45;;;6.75;;
77888;SDS011;67082;41.704;44.768;2023-07-28T01:20:11;13.43;;;7.30;;
77888;SDS011;67082;41.704;44.768;2023-07-28T01:22:52;16.40;;;6.80;;
77888;SDS011;67082;41.704;44.768;2023-07-28T01:28:36;12.52;;;6.75;;
77888;SDS011;67082;41.704;44.768;2023-07-28T01:31:07;9.07;;;6.22;;
77888;SDS011;67082;41.704;44.768;2023-07-28T01:33:36;12.45;;;6.63;;
77888;SDS011;67082;41.704;44.768;2023-07-28T01:36:04;7.55;;;5.95;;
77888;SDS011;67082;41.704;44.768;2023-07-28T01:38:32;13.00;;;6.00;;
77888;SDS011;67082;41.704;44.768;2023-07-28T01:41:00;12.45;;;6.72;;
77888;SDS011;67082;41.704;44.768;2023-07-28T01:43:28;12.25;;;6.47;;
77888;SDS011;67082;41.704;44.768;2023-07-28T01:45:56;11.65;;;6.88;;
77888;SDS011;67082;41.704;44.768;2023-07-28T01:48:25;14.65;;;7.10;;
77888;SDS011;67082;41.704;44.768;2023-07-28T01:50:54;17.73;;;6.70;;
77888;SDS011;67082;41.704;44.768;2023-07-28T01:53:23;13.38;;;7.20;;
77888;SDS011;67082;41.704;44.768;2023-07-28T01:55:51;12.27;;;6.82;;
77888;SDS011;67082;41.704;44.768;2023-07-28T01:58:20;14.75;;;6.97;;
77888;SDS011;67082;41.704;44.768;2023-07-28T02:00:48;18.05;;;6.93;;
77888;SDS011;67082;41.704;44.768;2023-07-28T02:03:16;16.45;;;7.38;;
77888;SDS011;67082;41.704;44.768;2023-07-28T02:05:44;18.48;;;7.10;;
77888;SDS011;67082;41.704;44.768;2023-07-28T02:08:14;19.35;;;7.82;;
77888;SDS011;67082;41.704;44.768;2023-07-28T02:10:44;17.42;;;7.63;;
77888;SDS011;67082;41.704;44.768;2023-07-28T02:13:13;14.85;;;7.40;;
77888;SDS011;67082;41.704;44.768;2023-07-28T02:15:41;13.88;;;7.20;;
77888;SDS011;67082;41.704;44.768;2023-07-28T02:18:09;13.15;;;7.18;;
77888;SDS011;67082;41.704;44.768;2023-07-28T02:20:37;20.52;;;7.13;;
77888;SDS011;67082;41.704;44.768;2023-07-28T02:23:06;13.82;;;6.97;;
77888;SDS011;67082;41.704;44.768;2023-07-28T02:25:35;23.15;;;7.20;;
77888;SDS011;67082;41.704;44.768;2023-07-28T02:28:04;13.20;;;6.90;;
77888;SDS011;67082;41.704;44.768;2023-07-28T02:30:32;11.45;;;7.00;;
77888;SDS011;67082;41.704;44.768;2023-07-28T02:33:00;9.48;;;6.82;;
77888;SDS011;67082;41.704;44.768;2023-07-28T02:35:28;13.20;;;6.22;;
77888;SDS011;67082;41.704;44.768;2023-07-28T02:37:56;13.57;;;7.25;;
77888;SDS011;67082;41.704;44.768;2023-07-28T02:40:24;11.25;;;6.72;;
77888;SDS011;67082;41.704;44.768;2023-07-28T02:42:54;13.38;;;6.88;;
77888;SDS011;67082;41.704;44.768;2023-07-28T02:45:22;12.05;;;7.10;;
77888;SDS011;67082;41.704;44.768;2023-07-28T02:47:51;10.38;;;6.70;;
77888;SDS011;67082;41.704;44.768;2023-07-28T02:50:19;14.05;;;6.60;;
77888;SDS011;67082;41.704;44.768;2023-07-28T02:52:48;9.82;;;6.40;;
77888;SDS011;67082;41.704;44.768;2023-07-28T02:55:16;13.30;;;6.85;;
77888;SDS011;67082;41.704;44.768;2023-07-28T02:57:44;10.43;;;6.78;;
77888;SDS011;67082;41.704;44.768;2023-07-28T03:00:12;11.30;;;6.75;;
77888;SDS011;67082;41.704;44.768;2023-07-28T03:02:42;11.85;;;6.57;;
77888;SDS011;67082;41.704;44.768;2023-07-28T03:05:11;14.13;;;6.95;;
77888;SDS011;67082;41.704;44.768;2023-07-28T03:07:42;10.27;;;6.25;;
77888;SDS011;67082;41.704;44.768;2023-07-28T03:10:10;11.00;;;6.53;;
77888;SDS011;67082;41.704;44.768;2023-07-28T03:12:44;10.73;;;6.43;;
77888;SDS011;67082;41.704;44.768;2023-07-28T03:15:12;12.25;;;6.32;;
77888;SDS011;67082;41.704;44.768;2023-07-28T03:17:41;10.88;;;6.47;;
77888;SDS011;67082;41.704;44.768;2023-07-28T03:20:09;11.90;;;6.47;;
77888;SDS011;67082;41.704;44.768;2023-07-28T03:22:39;14.25;;;5.82;;
77888;SDS011;67082;41.704;44.768;2023-07-28T03:25:07;11.00;;;5.78;;
77888;SDS011;67082;41.704;44.768;2023-07-28T03:27:36;10.13;;;5.88;;
77888;SDS011;67082;41.704;44.768;2023-07-28T03:30:04;9.98;;;6.05;;
77888;SDS011;67082;41.704;44.768;2023-07-28T03:32:34;17.10;;;6.57;;
77888;SDS011;67082;41.704;44.768;2023-07-28T03:35:03;9.20;;;5.85;;
77888;SDS011;67082;41.704;44.768;2023-07-28T03:37:37;8.52;;;6.18;;
77888;SDS011;67082;41.704;44.768;2023-07-28T03:40:05;12.45;;;5.70;;
77888;SDS011;67082;41.704;44.768;2023-07-28T03:42:46;11.05;;;5.78;;
77888;SDS011;67082;41.704;44.768;2023-07-28T03:45:14;8.48;;;5.50;;
77888;SDS011;67082;41.704;44.768;2023-07-28T03:47:43;15.65;;;5.82;;
77888;SDS011;67082;41.704;44.768;2023-07-28T03:50:11;9.98;;;5.90;;
77888;SDS011;67082;41.704;44.768;2023-07-28T03:52:39;10.07;;;6.25;;
77888;SDS011;67082;41.704;44.768;2023-07-28T03:55:07;9.68;;;6.10;;
77888;SDS011;67082;41.704;44.768;2023-07-28T03:57:36;9.10;;;5.65;;
77888;SDS011;67082;41.704;44.768;2023-07-28T04:00:04;12.30;;;6.20;;
77888;SDS011;67082;41.704;44.768;2023-07-28T04:02:38;9.97;;;6.43;;
77888;SDS011;67082;41.704;44.768;2023-07-28T04:05:07;11.93;;;6.32;;
77888;SDS011;67082;41.704;44.768;2023-07-28T04:07:36;10.88;;;6.70;;
77888;SDS011;67082;41.704;44.768;2023-07-28T04:10:04;10.85;;;6.20;;
77888;SDS011;67082;41.704;44.768;2023-07-28T04:12:34;10.88;;;5.95;;
77888;SDS011;67082;41.704;44.768;2023-07-28T04:15:02;10.23;;;6.03;;
77888;SDS011;67082;41.704;44.768;2023-07-28T04:17:31;12.68;;;6.32;;
77888;SDS011;67082;41.704;44.768;2023-07-28T04:20:00;12.73;;;5.57;;
77888;SDS011;67082;41.704;44.768;2023-07-28T04:22:30;9.75;;;5.95;;
77888;SDS011;67082;41.704;44.768;2023-07-28T04:24:58;8.07;;;5.72;;
77888;SDS011;67082;41.704;44.768;2023-07-28T04:27:30;13.30;;;6.00;;
77888;SDS011;67082;41.704;44.768;2023-07-28T04:30:01;10.63;;;6.10;;
77888;SDS011;67082;41.704;44.768;2023-07-28T04:32:31;11.07;;;6.20;;
77888;SDS011;67082;41.704;44.768;2023-07-28T04:35:06;8.93;;;6.10;;
77888;SDS011;67082;41.704;44.768;2023-07-28T04:37:42;10.20;;;6.00;;
77888;SDS011;67082;41.704;44.768;2023-07-28T04:40:14;11.20;;;6.18;;
77888;SDS011;67082;41.704;44.768;2023-07-28T04:42:45;14.60;;;6.43;;
77888;SDS011;67082;41.704;44.768;2023-07-28T04:45:13;9.15;;;6.22;;
77888;SDS011;67082;41.704;44.768;2023-07-28T04:47:42;10.30;;;6.65;;
77888;SDS011;67082;41.704;44.768;2023-07-28T04:50:11;11.23;;;6.35;;
77888;SDS011;67082;41.704;44.768;2023-07-28T04:53:11;13.52;;;6.88;;
77888;SDS011;67082;41.704;44.768;2023-07-28T04:56:08;10.75;;;6.43;;
77888;SDS011;67082;41.704;44.768;2023-07-28T04:58:37;12.32;;;6.18;;
77888;SDS011;67082;41.704;44.768;2023-07-28T05:01:05;11.00;;;6.03;;
77888;SDS011;67082;41.704;44.768;2023-07-28T05:03:36;12.80;;;6.55;;
77888;SDS011;67082;41.704;44.768;2023-07-28T05:06:17;14.23;;;6.70;;
77888;SDS011;67082;41.704;44.768;2023-07-28T05:08:46;10.23;;;6.15;;
77888;SDS011;67082;41.704;44.768;2023-07-28T05:11:20;9.35;;;6.40;;
77888;SDS011;67082;41.704;44.768;2023-07-28T05:13:49;10.48;;;6.72;;
77888;SDS011;67082;41.704;44.768;2023-07-28T05:16:17;13.23;;;6.90;;
77888;SDS011;67082;41.704;44.768;2023-07-28T05:19:17;11.18;;;6.95;;
77888;SDS011;67082;41.704;44.768;2023-07-28T05:22:00;12.20;;;7.32;;
77888;SDS011;67082;41.704;44.768;2023-07-28T05:24:43;11.82;;;7.03;;
77888;SDS011;67082;41.704;44.768;2023-07-28T05:27:13;14.75;;;7.28;;
77888;SDS011;67082;41.704;44.768;2023-07-28T05:29:44;14.60;;;6.82;;
77888;SDS011;67082;41.704;44.768;2023-07-28T05:32:12;12.07;;;7.60;;
77888;SDS011;67082;41.704;44.768;2023-07-28T05:35:04;10.85;;;7.50;;
77888;SDS011;67082;41.704;44.768;2023-07-28T05:37:33;16.20;;;7.80;;
77888;SDS011;67082;41.704;44.768;2023-07-28T05:40:01;12.32;;;7.47;;
77888;SDS011;67082;41.704;44.768;2023-07-28T05:42:34;10.85;;;7.38;;
77888;SDS011;67082;41.704;44.768;2023-07-28T05:45:02;12.13;;;6.80;;
77888;SDS011;67082;41.704;44.768;2023-07-28T05:47:32;12.35;;;7.50;;
77888;SDS011;67082;41.704;44.768;2023-07-28T05:50:00;13.60;;;7.30;;
77888;SDS011;67082;41.704;44.768;2023-07-28T05:52:35;15.65;;;8.00;;
77888;SDS011;67082;41.704;44.768;2023-07-28T05:55:03;16.73;;;8.35;;
77888;SDS011;67082;41.704;44.768;2023-07-28T05:57:31;12.30;;;7.95;;
77888;SDS011;67082;41.704;44.768;2023-07-28T06:00:04;13.65;;;8.25;;
77888;SDS011;67082;41.704;44.768;2023-07-28T06:02:40;15.52;;;7.78;;
77888;SDS011;67082;41.704;44.768;2023-07-28T06:05:14;12.68;;;7.60;;
77888;SDS011;67082;41.704;44.768;2023-07-28T06:07:43;12.80;;;7.47;;
77888;SDS011;67082;41.704;44.768;2023-07-28T06:10:11;15.55;;;8.05;;
77888;SDS011;67082;41.704;44.768;2023-07-28T06:12:39;11.18;;;7.13;;
77888;SDS011;67082;41.704;44.768;2023-07-28T06:15:08;17.73;;;7.45;;
77888;SDS011;67082;41.704;44.768;2023-07-28T06:17:38;13.05;;;7.20;;
77888;SDS011;67082;41.704;44.768;2023-07-28T06:20:07;14.23;;;7.30;;
77888;SDS011;67082;41.704;44.768;2023-07-28T06:22:36;10.82;;;7.32;;
77888;SDS011;67082;41.704;44.768;2023-07-28T06:25:04;11.73;;;6.88;;
77888;SDS011;67082;41.704;44.768;2023-07-28T06:27:32;12.55;;;8.15;;
77888;SDS011;67082;41.704;44.768;2023-07-28T06:30:01;13.07;;;8.13;;
77888;SDS011;67082;41.704;44.768;2023-07-28T06:32:30;13.05;;;8.05;;
77888;SDS011;67082;41.704;44.768;2023-07-28T06:34:59;15.57;;;7.78;;
77888;SDS011;67082;41.704;44.768;2023-07-28T06:37:29;17.98;;;7.95;;
77888;SDS011;67082;41.704;44.768;2023-07-28T06:39:58;13.32;;;8.57;;
77888;SDS011;67082;41.704;44.768;2023-07-28T06:42:26;12.38;;;8.23;;
77888;SDS011;67082;41.704;44.768;2023-07-28T06:44:56;16.73;;;8.13;;
77888;SDS011;67082;41.704;44.768;2023-07-28T06:47:24;17.42;;;9.18;;
77888;SDS011;67082;41.704;44.768;2023-07-28T06:49:53;13.45;;;8.20;;
77888;SDS011;67082;41.704;44.768;2023-07-28T06:52:21;13.90;;;8.13;;
77888;SDS011;67082;41.704;44.768;2023-07-28T06:54:49;16.80;;;8.38;;
77888;SDS011;67082;41.704;44.768;2023-07-28T06:57:17;15.95;;;7.88;;
77888;SDS011;67082;41.704;44.768;2023-07-28T06:59:48;12.93;;;7.75;;
77888;SDS011;67082;41.704;44.768;2023-07-28T07:02:16;18.05;;;8.43;;
77888;SDS011;67082;41.704;44.768;2023-07-28T07:04:44;17.38;;;7.68;;
77888;SDS011;67082;41.704;44.768;2023-07-28T07:07:12;16.30;;;7.82;;
77888;SDS011;67082;41.704;44.768;2023-07-28T07:09:41;16.23;;;7.57;;
77888;SDS011;67082;41.704;44.768;2023-07-28T07:12:09;14.65;;;8.13;;
77888;SDS011;67082;41.704;44.768;2023-07-28T07:14:38;15.05;;;7.60;;
77888;SDS011;67082;41.704;44.768;2023-07-28T07:17:06;11.88;;;7.80;;
77888;SDS011;67082;41.704;44.768;2023-07-28T07:19:35;16.08;;;8.05;;
77888;SDS011;67082;41.704;44.768;2023-07-28T07:22:03;15.98;;;6.72;;
77888;SDS011;67082;41.704;44.768;2023-07-28T07:24:32;12.88;;;7.47;;
77888;SDS011;67082;41.704;44.768;2023-07-28T07:27:00;13.85;;;6.85;;
77888;SDS011;67082;41.704;44.768;2023-07-28T07:29:28;11.70;;;6.97;;
77888;SDS011;67082;41.704;44.768;2023-07-28T07:31:56;14.07;;;6.50;;
77888;SDS011;67082;41.704;44.768;2023-07-28T07:34:25;17.83;;;7.30;;
77888;SDS011;67082;41.704;44.768;2023-07-28T07:36:53;15.23;;;7.00;;
77888;SDS011;67082;41.704;44.768;2023-07-28T07:39:21;12.15;;;6.35;;
77888;SDS011;67082;41.704;44.768;2023-07-28T07:41:49;13.90;;;6.57;;
77888;SDS011;67082;41.704;44.768;2023-07-28T07:44:17;10.13;;;5.88;;
77888;SDS011;67082;41.704;44.768;2023-07-28T07:46:45;9.93;;;5.45;;
77888;SDS011;67082;41.704;44.768;2023-07-28T07:49:14;10.80;;;5.60;;
77888;SDS011;67082;41.704;44.768;2023-07-28T07:51:42;10.88;;;5.90;;
77888;SDS011;67082;41.704;44.768;2023-07-28T07:54:10;10.43;;;5.88;;
77888;SDS011;67082;41.704;44.768;2023-07-28T07:56:43;12.02;;;7.70;;
77888;SDS011;67082;41.704;44.768;2023-07-28T07:59:11;7.63;;;5.25;;
77888;SDS011;67082;41.704;44.768;2023-07-28T08:01:39;8.65;;;5.35;;
77888;SDS011;67082;41.704;44.768;2023-07-28T08:04:08;10.68;;;5.88;;
77888;SDS011;67082;41.704;44.768;2023-07-28T08:06:39;8.45;;;5.43;;
77888;SDS011;67082;41.704;44.768;2023-07-28T08:09:07;8.63;;;5.22;;
77888;SDS011;67082;41.704;44.768;2023-07-28T08:11:35;9.30;;;5.22;;
77888;SDS011;67082;41.704;44.768;2023-07-28T08:14:04;16.65;;;5.40;;
77888;SDS011;67082;41.704;44.768;2023-07-28T08:16:34;8.77;;;5.03;;
77888;SDS011;67082;41.704;44.768;2023-07-28T08:19:03;7.95;;;5.00;;
77888;SDS011;67082;41.704;44.768;2023-07-28T08:21:31;8.55;;;4.68;;
77888;SDS011;67082;41.704;44.768;2023-07-28T08:24:04;8.43;;;4.20;;
77888;SDS011;67082;41.704;44.768;2023-07-28T08:26:32;7.85;;;4.13;;
77888;SDS011;67082;41.704;44.768;2023-07-28T08:29:01;9.65;;;4.35;;
77888;SDS011;67082;41.704;44.768;2023-07-28T08:31:31;7.68;;;4.63;;
77888;SDS011;67082;41.704;44.768;2023-07-28T08:34:00;8.65;;;4.30;;
77888;SDS011;67082;41.704;44.768;2023-07-28T08:36:28;10.15;;;4.32;;
77888;SDS011;67082;41.704;44.768;2023-07-28T08:38:56;7.32;;;4.28;;
77888;SDS011;67082;41.704;44.768;2023-07-28T08:41:25;7.32;;;3.92;;
77888;SDS011;67082;41.704;44.768;2023-07-28T08:43:53;7.60;;;4.25;;
77888;SDS011;67082;41.704;44.768;2023-07-28T08:46:21;6.43;;;3.90;;
77888;SDS011;67082;41.704;44.768;2023-07-28T08:48:51;9.05;;;4.07;;
77888;SDS011;67082;41.704;44.768;2023-07-28T08:51:21;10.18;;;4.43;;
77888;SDS011;67082;41.704;44.768;2023-07-28T08:53:51;9.05;;;4.55;;
77888;SDS011;67082;41.704;44.768;2023-07-28T08:56:20;18.02;;;5.00;;
77888;SDS011;67082;41.704;44.768;2023-07-28T08:58:49;14.43;;;5.28;;
77888;SDS011;67082;41.704;44.768;2023-07-28T09:01:25;13.18;;;4.50;;
77888;SDS011;67082;41.704;44.768;2023-07-28T09:03:54;7.13;;;4.22;;
77888;SDS011;67082;41.704;44.768;2023-07-28T09:06:28;5.93;;;4.10;;
77888;SDS011;67082;41.704;44.768;2023-07-28T09:08:59;8.70;;;4.35;;
77888;SDS011;67082;41.704;44.768;2023-07-28T09:11:27;10.80;;;4.20;;
77888;SDS011;67082;41.704;44.768;2023-07-28T09:13:57;12.15;;;4.38;;
77888;SDS011;67082;41.704;44.768;2023-07-28T09:16:28;9.65;;;4.18;;
77888;SDS011;67082;41.704;44.768;2023-07-28T09:19:06;8.88;;;4.32;;
77888;SDS011;67082;41.704;44.768;2023-07-28T09:21:37;10.98;;;4.82;;
77888;SDS011;67082;41.704;44.768;2023-07-28T09:24:07;10.45;;;5.00;;
77888;SDS011;67082;41.704;44.768;2023-07-28T09:29:19;8.15;;;4.95;;
77888;SDS011;67082;41.704;44.768;2023-07-28T09:31:48;11.95;;;5.47;;
77888;SDS011;67082;41.704;44.768;2023-07-28T09:34:27;9.85;;;5.07;;
77888;SDS011;67082;41.704;44.768;2023-07-28T09:36:58;8.80;;;5.30;;
77888;SDS011;67082;41.704;44.768;2023-07-28T09:39:27;11.85;;;4.95;;
77888;SDS011;67082;41.704;44.768;2023-07-28T09:41:55;11.82;;;5.32;;
77888;SDS011;67082;41.704;44.768;2023-07-28T09:44:27;9.20;;;4.93;;
77888;SDS011;67082;41.704;44.768;2023-07-28T09:46:55;8.55;;;5.53;;
77888;SDS011;67082;41.704;44.768;2023-07-28T09:52:04;11.63;;;5.22;;
77888;SDS011;67082;41.704;44.768;2023-07-28T09:54:35;7.22;;;4.70;;
77888;SDS011;67082;41.704;44.768;2023-07-28T09:57:14;8.80;;;4.70;;
77888;SDS011;67082;41.704;44.768;2023-07-28T09:59:47;7.32;;;4.57;;
77888;SDS011;67082;41.704;44.768;2023-07-28T10:02:15;11.40;;;4.88;;
77888;SDS011;67082;41.704;44.768;2023-07-28T10:04:44;10.45;;;4.43;;
77888;SDS011;67082;41.704;44.768;2023-07-28T10:07:13;9.43;;;3.90;;
77888;SDS011;67082;41.704;44.768;2023-07-28T10:09:42;8.20;;;4.13;;
77888;SDS011;67082;41.704;44.768;2023-07-28T10:12:27;9.07;;;4.18;;
77888;SDS011;67082;41.704;44.768;2023-07-28T10:15:02;7.95;;;4.10;;
77888;SDS011;67082;41.704;44.768;2023-07-28T10:17:32;9.73;;;4.40;;
77888;SDS011;67082;41.704;44.768;2023-07-28T10:20:05;6.60;;;3.92;;
77888;SDS011;67082;41.704;44.768;2023-07-28T10:22:44;10.85;;;4.53;;
77888;SDS011;67082;41.704;44.768;2023-07-28T10:25:16;11.73;;;4.63;;
77888;SDS011;67082;41.704;44.768;2023-07-28T10:27:53;10.80;;;4.43;;
77888;SDS011;67082;41.704;44.768;2023-07-28T10:30:22;11.63;;;4.20;;
77888;SDS011;67082;41.704;44.768;2023-07-28T10:32:50;14.02;;;4.85;;
77888;SDS011;67082;41.704;44.768;2023-07-28T10:37:53;17.00;;;5.07;;
77888;SDS011;67082;41.704;44.768;2023-07-28T10:40:27;10.10;;;4.70;;
77888;SDS011;67082;41.704;44.768;2023-07-28T10:42:56;17.65;;;4.25;;
77888;SDS011;67082;41.704;44.768;2023-07-28T10:45:26;13.77;;;4.90;;
77888;SDS011;67082;41.704;44.768;2023-07-28T10:47:57;21.33;;;5.25;;
77888;SDS011;67082;41.704;44.768;2023-07-28T10:50:29;15.30;;;5.00;;
77888;SDS011;67082;41.704;44.768;2023-07-28T10:52:58;12.50;;;4.65;;
77888;SDS011;67082;41.704;44.768;2023-07-28T10:55:29;22.67;;;5.22;;
77888;SDS011;67082;41.704;44.768;2023-07-28T10:57:57;13.70;;;4.88;;
77888;SDS011;67082;41.704;44.768;2023-07-28T11:00:26;14.95;;;4.85;;
77888;SDS011;67082;41.704;44.768;2023-07-28T11:02:55;13.18;;;4.70;;
77888;SDS011;67082;41.704;44.768;2023-07-28T11:05:28;13.07;;;4.60;;
77888;SDS011;67082;41.704;44.768;2023-07-28T11:07:58;9.77;;;4.32;;
77888;SDS011;67082;41.704;44.768;2023-07-28T11:10:29;12.05;;;4.72;;
77888;SDS011;67082;41.704;44.768;2023-07-28T11:12:59;10.00;;;4.22;;
77888;SDS011;67082;41.704;44.768;2023-07-28T11:15:47;11.60;;;4.68;;
77888;SDS011;67082;41.704;44.768;2023-07-28T11:18:15;8.82;;;5.40;;
77888;SDS011;67082;41.704;44.768;2023-07-28T11:20:44;18.00;;;4.68;;
77888;SDS011;67082;41.704;44.768;2023-07-28T11:23:13;21.92;;;5.07;;
77888;SDS011;67082;41.704;44.768;2023-07-28T11:25:42;13.63;;;4.55;;
77888;SDS011;67082;41.704;44.768;2023-07-28T11:28:11;13.35;;;4.85;;
77888;SDS011;67082;41.704;44.768;2023-07-28T11:30:40;14.85;;;5.05;;
77888;SDS011;67082;41.704;44.768;2023-07-28T11:33:10;12.23;;;4.78;;
77888;SDS011;67082;41.704;44.768;2023-07-28T11:35:39;13.43;;;4.97;;
77888;SDS011;67082;41.704;44.768;2023-07-28T11:38:10;16.20;;;5.43;;
77888;SDS011;67082;41.704;44.768;2023-07-28T11:40:41;10.25;;;5.32;;
77888;SDS011;67082;41.704;44.768;2023-07-28T11:43:10;13.98;;;4.93;;
77888;SDS011;67082;41.704;44.768;2023-07-28T11:45:39;14.10;;;5.38;;
77888;SDS011;67082;41.704;44.768;2023-07-28T11:48:07;15.65;;;4.90;;
77888;SDS011;67082;41.704;44.768;2023-07-28T11:53:05;16.83;;;5.65;;
77888;SDS011;67082;41.704;44.768;2023-07-28T11:55:35;13.18;;;5.00;;
77888;SDS011;67082;41.704;44.768;2023-07-28T11:58:07;11.55;;;4.88;;
77888;SDS011;67082;41.704;44.768;2023-07-28T12:00:39;12.43;;;4.93;;
77888;SDS011;67082;41.704;44.768;2023-07-28T12:03:11;19.13;;;5.65;;
77888;SDS011;67082;41.704;44.768;2023-07-28T12:05:41;14.93;;;5.10;;
77888;SDS011;67082;41.704;44.768;2023-07-28T12:08:35;18.35;;;5.15;;
77888;SDS011;67082;41.704;44.768;2023-07-28T12:11:11;15.95;;;4.72;;
77888;SDS011;67082;41.704;44.768;2023-07-28T12:13:50;15.35;;;5.35;;
77888;SDS011;67082;41.704;44.768;2023-07-28T12:16:31;14.65;;;5.13;;
77888;SDS011;67082;41.704;44.768;2023-07-28T12:19:09;13.55;;;4.88;;
77888;SDS011;67082;41.704;44.768;2023-07-28T12:21:38;11.80;;;5.85;;
77888;SDS011;67082;41.704;44.768;2023-07-28T12:24:06;12.57;;;4.70;;
77888;SDS011;67082;41.704;44.768;2023-07-28T12:26:35;10.07;;;4.50;;
77888;SDS011;67082;41.704;44.768;2023-07-28T12:29:07;11.07;;;4.60;;
77888;SDS011;67082;41.704;44.768;2023-07-28T12:31:38;10.93;;;4.97;;
77888;SDS011;67082;41.704;44.768;2023-07-28T12:34:09;11.85;;;4.97;;
77888;SDS011;67082;41.704;44.768;2023-07-28T12:36:51;11.10;;;5.03;;
77888;SDS011;67082;41.704;44.768;2023-07-28T12:39:21;9.25;;;4.55;;
77888;SDS011;67082;41.704;44.768;2023-07-28T12:41:54;14.50;;;4.90;;
77888;SDS011;67082;41.704;44.768;2023-07-28T12:44:25;14.90;;;4.82;;
77888;SDS011;67082;41.704;44.768;2023-07-28T12:46:56;9.65;;;4.68;;
77888;SDS011;67082;41.704;44.768;2023-07-28T12:49:24;8.48;;;4.53;;
77888;SDS011;67082;41.704;44.768;2023-07-28T12:51:52;12.10;;;4.45;;
77888;SDS011;67082;41.704;44.768;2023-07-28T12:54:25;12.13;;;4.60;;
77888;SDS011;67082;41.704;44.768;2023-07-28T12:56:53;14.88;;;5.47;;
77888;SDS011;67082;41.704;44.768;2023-07-28T12:59:26;16.77;;;4.50;;
77888;SDS011;67082;41.704;44.768;2023-07-28T13:01:56;13.70;;;5.15;;
77888;SDS011;67082;41.704;44.768;2023-07-28T13:04:24;14.68;;;4.47;;
77888;SDS011;67082;41.704;44.768;2023-07-28T13:06:53;13.35;;;4.75;;
77888;SDS011;67082;41.704;44.768;2023-07-28T13:09:41;12.00;;;5.20;;
77888;SDS011;67082;41.704;44.768;2023-07-28T13:12:12;15.05;;;4.60;;
77888;SDS011;67082;41.704;44.768;2023-07-28T13:14:43;11.65;;;4.80;;
77888;SDS011;67082;41.704;44.768;2023-07-28T13:17:11;10.18;;;4.15;;
77888;SDS011;67082;41.704;44.768;2023-07-28T13:19:40;9.45;;;3.92;;
77888;SDS011;67082;41.704;44.768;2023-07-28T13:22:08;13.50;;;4.00;;
77888;SDS011;67082;41.704;44.768;2023-07-28T13:24:37;17.92;;;5.00;;
77888;SDS011;67082;41.704;44.768;2023-07-28T13:27:06;11.75;;;4.50;;
77888;SDS011;67082;41.704;44.768;2023-07-28T13:29:34;12.88;;;4.25;;
77888;SDS011;67082;41.704;44.768;2023-07-28T13:32:03;12.40;;;4.97;;
77888;SDS011;67082;41.704;44.768;2023-07-28T13:34:31;9.23;;;4.32;;
77888;SDS011;67082;41.704;44.768;2023-07-28T13:36:59;10.88;;;4.35;;
77888;SDS011;67082;41.704;44.768;2023-07-28T13:39:27;9.93;;;4.97;;
77888;SDS011;67082;41.704;44.768;2023-07-28T13:41:56;11.07;;;4.00;;
77888;SDS011;67082;41.704;44.768;2023-07-28T13:44:23;9.15;;;4.50;;
77888;SDS011;67082;41.704;44.768;2023-07-28T13:46:58;13.07;;;4.05;;
77888;SDS011;67082;41.704;44.768;2023-07-28T13:49:27;8.70;;;3.85;;
77888;SDS011;67082;41.704;44.768;2023-07-28T13:51:55;9.27;;;4.00;;
77888;SDS011;67082;41.704;44.768;2023-07-28T13:54:26;10.15;;;3.85;;
77888;SDS011;67082;41.704;44.768;2023-07-28T13:56:55;12.85;;;4.00;;
77888;SDS011;67082;41.704;44.768;2023-07-28T13:59:26;8.07;;;3.60;;
77888;SDS011;67082;41.704;44.768;2023-07-28T14:01:54;12.85;;;4.40;;
77888;SDS011;67082;41.704;44.768;2023-07-28T14:04:23;6.70;;;3.17;;
77888;SDS011;67082;41.704;44.768;2023-07-28T14:06:52;12.85;;;3.42;;
77888;SDS011;67082;41.704;44.768;2023-07-28T14:09:20;11.77;;;3.20;;
77888;SDS011;67082;41.704;44.768;2023-07-28T14:11:48;15.23;;;3.50;;
77888;SDS011;67082;41.704;44.768;2023-07-28T14:14:16;16.55;;;3.55;;
77888;SDS011;67082;41.704;44.768;2023-07-28T14:16:45;11.77;;;3.70;;
77888;SDS011;67082;41.704;44.768;2023-07-28T14:19:13;7.97;;;2.50;;
77888;SDS011;67082;41.704;44.768;2023-07-28T14:21:42;11.93;;;2.50;;
77888;SDS011;67082;41.704;44.768;2023-07-28T14:24:10;9.23;;;2.22;;
77888;SDS011;67082;41.704;44.768;2023-07-28T14:26:39;8.60;;;2.35;;
77888;SDS011;67082;41.704;44.768;2023-07-28T14:29:06;7.30;;;2.10;;
77888;SDS011;67082;41.704;44.768;2023-07-28T14:31:35;8.35;;;2.33;;
77888;SDS011;67082;41.704;44.768;2023-07-28T14:34:03;9.23;;;1.92;;
77888;SDS011;67082;41.704;44.768;2023-07-28T14:36:32;8.85;;;1.65;;
77888;SDS011;67082;41.704;44.768;2023-07-28T14:39:05;7.43;;;1.83;;
77888;SDS011;67082;41.704;44.768;2023-07-28T14:41:35;7.93;;;1.77;;
77888;SDS011;67082;41.704;44.768;2023-07-28T14:44:04;9.60;;;1.73;;
77888;SDS011;67082;41.704;44.768;2023-07-28T14:46:32;5.43;;;0.98;;
77888;SDS011;67082;41.704;44.768;2023-07-28T14:49:01;3.38;;;1.30;;
77888;SDS011;67082;41.704;44.768;2023-07-28T14:51:30;4.55;;;1.10;;
77888;SDS011;67082;41.704;44.768;2023-07-28T14:53:58;7.50;;;1.10;;
77888;SDS011;67082;41.704;44.768;2023-07-28T14:56:27;3.85;;;0.90;;